createdAt,value
2022-12-15T00:00:47.403Z,83.34
2022-12-15T00:04:08.459Z,83.15
2022-12-15T00:07:28.954Z,85.22
2022-12-15T00:10:50.094Z,83.14
2022-12-15T00:14:10.728Z,85.01
2022-12-15T00:17:31.801Z,85.36
2022-12-15T00:20:53.554Z,84.45
2022-12-15T00:24:14.473Z,83.41
2022-12-15T00:27:35.197Z,84.66
2022-12-15T00:31:02.125Z,83.73
2022-12-15T00:34:23.489Z,82.80
2022-12-15T00:37:44.563Z,82.88
2022-12-15T00:40:46.687Z,82.37
2022-12-15T00:43:49.749Z,82.75
2022-12-15T00:46:54.870Z,83.84
2022-12-15T00:50:16.089Z,84.26
2022-12-15T00:53:40.799Z,83.52
2022-12-15T00:57:01.724Z,83.49
2022-12-15T01:00:24.211Z,82.58
2022-12-15T01:03:45.393Z,83.59
2022-12-15T01:07:06.320Z,84.82
2022-12-15T01:10:27.765Z,83.43
2022-12-15T01:13:50.015Z,82.56
2022-12-15T01:17:11.330Z,84.44
2022-12-15T01:20:15.061Z,85.44
2022-12-15T01:23:17.913Z,84.89
2022-12-15T01:26:20.345Z,84.59
2022-12-15T01:29:22.857Z,84.40
2022-12-15T01:32:25.096Z,84.07
2022-12-15T01:35:27.765Z,84.50
2022-12-15T01:38:30.138Z,82.03
2022-12-15T01:41:32.545Z,84.07
2022-12-15T01:44:36.790Z,83.14
2022-12-15T01:47:39.374Z,82.06
2022-12-15T01:50:55.887Z,82.40
2022-12-15T01:54:20.475Z,81.73
2022-12-15T01:57:27.114Z,81.67
2022-12-15T02:00:30.819Z,82.30
2022-12-15T02:03:34.088Z,84.13
2022-12-15T02:06:37.302Z,84.42
2022-12-15T02:09:40.788Z,84.13
2022-12-15T02:13:19.086Z,83.01
2022-12-15T02:16:27.931Z,81.86
2022-12-15T02:19:48.808Z,81.43
2022-12-15T02:23:16.138Z,82.94
2022-12-15T02:26:56.412Z,82.03
2022-12-15T02:30:19.616Z,81.83
2022-12-15T02:33:30.431Z,81.79
2022-12-15T02:36:37.003Z,81.73
2022-12-15T02:39:39.490Z,81.49
2022-12-15T02:42:52.418Z,82.03
2022-12-15T02:46:01.436Z,82.12
2022-12-15T02:49:23.089Z,82.69
2022-12-15T02:52:37.744Z,84.15
2022-12-15T02:55:52.172Z,82.43
2022-12-15T02:59:03.576Z,82.73
2022-12-15T03:02:07.716Z,82.42
2022-12-15T03:05:13.108Z,82.72
2022-12-15T03:08:15.235Z,83.47
2022-12-15T03:11:17.723Z,83.11
2022-12-15T03:14:20.635Z,84.38
2022-12-15T03:17:23.098Z,84.51
2022-12-15T03:20:25.188Z,83.72
2022-12-15T03:23:27.738Z,83.33
2022-12-15T03:26:30.065Z,83.33
2022-12-15T03:29:32.576Z,83.43
2022-12-15T03:32:34.669Z,83.65
2022-12-15T03:35:37.234Z,83.52
2022-12-15T03:38:39.400Z,85.52
2022-12-15T03:41:41.877Z,84.91
2022-12-15T03:44:44.009Z,86.60
2022-12-15T03:47:46.944Z,85.29
2022-12-15T03:50:50.088Z,85.14
2022-12-15T03:53:53.656Z,85.98
2022-12-15T03:56:55.749Z,86.17
2022-12-15T03:59:58.199Z,86.11
2022-12-15T04:03:00.649Z,87.21
2022-12-15T04:06:03.280Z,87.53
2022-12-15T04:09:05.547Z,87.38
2022-12-15T04:12:12.567Z,88.12
2022-12-15T04:15:15.437Z,88.37
2022-12-15T04:18:17.850Z,89.55
2022-12-15T04:21:20.011Z,89.87
2022-12-15T04:24:41.028Z,90.76
2022-12-15T04:28:02.022Z,90.61
2022-12-15T04:31:32.972Z,90.67
2022-12-15T04:34:54.289Z,90.59
2022-12-15T04:38:15.684Z,89.95
2022-12-15T04:41:39.041Z,89.37
2022-12-15T04:45:00.358Z,89.88
2022-12-15T04:48:21.869Z,91.17
2022-12-15T04:51:42.738Z,90.28
2022-12-15T04:55:03.159Z,90.06
2022-12-15T04:58:28.268Z,90.57
2022-12-15T05:01:48.950Z,88.14
2022-12-15T05:05:12.263Z,87.46
2022-12-15T05:08:33.020Z,88.56
2022-12-15T05:11:54.003Z,89.70
2022-12-15T05:15:14.975Z,90.49
2022-12-15T05:18:36.394Z,89.78
2022-12-15T05:21:57.137Z,90.60
2022-12-15T05:25:17.959Z,91.62
2022-12-15T05:28:38.911Z,90.72
2022-12-15T05:31:54.852Z,87.96
2022-12-15T05:34:57.060Z,89.67
2022-12-15T05:37:59.512Z,91.12
2022-12-15T05:41:01.737Z,89.78
2022-12-15T05:44:04.574Z,90.01
2022-12-15T05:47:08.200Z,90.08
2022-12-15T05:50:10.678Z,90.43
2022-12-15T05:53:12.821Z,90.68
2022-12-15T05:56:15.570Z,90.41
2022-12-15T05:59:19.201Z,90.13
2022-12-15T06:02:22.111Z,90.46
2022-12-15T06:05:24.654Z,89.83
2022-12-15T06:08:31.013Z,89.23
2022-12-15T06:11:33.527Z,87.09
2022-12-15T06:14:36.455Z,87.30
2022-12-15T06:17:39.580Z,89.06
2022-12-15T06:20:41.757Z,89.24
2022-12-15T06:23:45.115Z,87.46
2022-12-15T06:26:49.861Z,87.74
2022-12-15T06:29:53.101Z,87.87
2022-12-15T06:32:55.309Z,87.99
2022-12-15T06:36:01.275Z,89.82
2022-12-15T06:39:05.566Z,90.04
2022-12-15T06:42:08.067Z,86.66
2022-12-15T06:45:10.541Z,85.91
2022-12-15T06:48:12.985Z,86.00
2022-12-15T06:51:18.139Z,86.25
2022-12-15T06:54:20.576Z,85.75
2022-12-15T06:57:22.767Z,85.21
2022-12-15T07:00:25.229Z,86.25
2022-12-15T07:03:27.689Z,84.84
2022-12-15T07:06:36.773Z,84.82
2022-12-15T07:09:39.303Z,86.14
2022-12-15T07:12:41.738Z,86.76
2022-12-15T07:15:46.570Z,86.37
2022-12-15T07:18:49.347Z,85.84
2022-12-15T07:21:52.855Z,86.48
2022-12-15T07:24:55.713Z,86.95
2022-12-15T07:27:57.963Z,85.76
2022-12-15T07:31:06.843Z,85.21
2022-12-15T07:34:09.089Z,84.23
2022-12-15T07:37:11.606Z,83.85
2022-12-15T07:40:13.771Z,85.64
2022-12-15T07:43:16.590Z,86.27
2022-12-15T07:46:19.495Z,87.21
2022-12-15T07:49:22.113Z,85.58
2022-12-15T07:52:24.434Z,85.41
2022-12-15T07:55:50.004Z,84.14
2022-12-15T07:58:49.719Z,84.87
2022-12-15T08:01:53.666Z,84.80
2022-12-15T08:04:56.145Z,82.81
2022-12-15T08:07:58.742Z,83.28
2022-12-15T08:11:13.574Z,83.38
2022-12-15T08:14:17.870Z,84.71
2022-12-15T08:17:21.438Z,84.13
2022-12-15T08:20:24.935Z,83.77
2022-12-15T08:23:29.154Z,86.28
2022-12-15T08:26:31.848Z,84.72
2022-12-15T08:29:51.906Z,83.59
2022-12-15T08:32:54.660Z,83.97
2022-12-15T08:36:03.079Z,83.11
2022-12-15T08:39:05.410Z,81.23
2022-12-15T08:42:07.776Z,81.48
2022-12-15T08:45:11.333Z,80.93
2022-12-15T08:48:14.031Z,80.87
2022-12-15T08:51:17.349Z,82.86
2022-12-15T08:54:20.597Z,82.01
2022-12-15T08:57:22.767Z,82.09
2022-12-15T09:00:25.302Z,83.60
2022-12-15T09:03:27.795Z,83.14
2022-12-15T09:06:33.477Z,81.23
2022-12-15T09:09:35.650Z,81.14
2022-12-15T09:12:38.239Z,80.41
2022-12-15T09:16:08.483Z,80.15
2022-12-15T09:19:06.054Z,81.66
2022-12-15T09:22:08.687Z,82.61
2022-12-15T09:25:11.143Z,82.61
2022-12-15T09:28:14.592Z,78.98
2022-12-15T09:31:22.747Z,77.97
2022-12-15T09:34:25.050Z,78.79
2022-12-15T09:37:27.587Z,79.71
2022-12-15T09:40:30.084Z,79.89
2022-12-15T09:43:35.161Z,79.60
2022-12-15T09:46:50.619Z,79.85
2022-12-15T09:50:05.618Z,80.01
2022-12-15T09:53:45.550Z,79.92
2022-12-15T09:56:42.910Z,79.63
2022-12-15T09:59:55.741Z,79.84
2022-12-15T10:03:31.386Z,80.70
2022-12-15T10:06:50.794Z,81.10
2022-12-15T10:09:53.173Z,81.05
2022-12-15T10:13:02.451Z,80.57
2022-12-15T10:16:31.532Z,82.26
2022-12-15T10:19:51.957Z,81.72
2022-12-15T10:22:57.953Z,79.72
2022-12-15T10:26:20.787Z,79.26
2022-12-15T10:29:33.093Z,80.57
2022-12-15T10:33:03.492Z,81.74
2022-12-15T10:36:11.635Z,81.57
2022-12-15T10:39:16.216Z,81.51
2022-12-15T10:42:22.727Z,81.58
2022-12-15T10:45:35.713Z,79.12
2022-12-15T10:48:37.899Z,77.40
2022-12-15T10:51:47.153Z,77.65
2022-12-15T10:54:52.038Z,78.79
2022-12-15T10:58:03.090Z,80.48
2022-12-15T11:01:19.250Z,81.75
2022-12-15T11:04:32.592Z,79.36
2022-12-15T11:07:36.733Z,80.73
2022-12-15T11:11:08.933Z,80.06
2022-12-15T11:14:24.187Z,80.43
2022-12-15T11:17:40.473Z,79.14
2022-12-15T11:21:11.592Z,79.57
2022-12-15T11:24:20.273Z,80.22
2022-12-15T11:27:43.292Z,81.61
2022-12-15T11:30:54.140Z,80.23
2022-12-15T11:33:57.740Z,80.00
2022-12-15T11:37:34.023Z,81.14
2022-12-15T11:40:39.848Z,80.38
2022-12-15T11:44:18.482Z,79.22
2022-12-15T11:47:27.893Z,80.30
2022-12-15T11:50:51.104Z,79.85
2022-12-15T11:53:56.490Z,81.17
2022-12-15T11:57:09.784Z,82.34
2022-12-15T12:00:18.363Z,81.15
2022-12-15T12:03:48.868Z,82.86
2022-12-15T12:07:08.752Z,80.84
2022-12-15T12:10:29.537Z,81.02
2022-12-15T12:13:44.197Z,81.69
2022-12-15T12:17:03.608Z,79.91
2022-12-15T12:20:38.787Z,82.11
2022-12-15T12:23:47.225Z,82.33
2022-12-15T12:26:58.725Z,84.31
2022-12-15T12:30:18.130Z,85.28
2022-12-15T12:33:36.822Z,85.07
2022-12-15T12:36:42.107Z,84.36
2022-12-15T12:39:46.953Z,84.70
2022-12-15T12:42:57.431Z,86.72
2022-12-15T12:46:13.986Z,84.84
2022-12-15T12:49:26.803Z,85.68
2022-12-15T12:52:38.015Z,86.70
2022-12-15T12:55:43.742Z,86.41
2022-12-15T12:58:48.568Z,85.73
2022-12-15T13:01:53.003Z,88.33
2022-12-15T13:05:00.085Z,85.18
2022-12-15T13:08:06.308Z,87.17
2022-12-15T13:11:58.383Z,86.15
2022-12-15T13:15:10.918Z,86.28
2022-12-15T13:18:17.725Z,86.72
2022-12-15T13:21:51.259Z,86.40
2022-12-15T13:24:56.387Z,86.03
2022-12-15T13:28:01.142Z,87.66
2022-12-15T13:31:27.893Z,86.70
2022-12-15T13:34:38.934Z,86.64
2022-12-15T13:37:46.748Z,87.12
2022-12-15T13:40:54.019Z,90.05
2022-12-15T13:43:58.528Z,89.46
2022-12-15T13:47:19.689Z,89.28
2022-12-15T13:50:38.570Z,89.82
2022-12-15T13:53:51.458Z,92.41
2022-12-15T13:57:15.075Z,91.86
2022-12-15T14:00:21.139Z,93.99
2022-12-15T14:03:24.757Z,93.97
2022-12-15T14:06:36.255Z,95.87
2022-12-15T14:09:42.085Z,96.13
2022-12-15T14:12:45.946Z,96.86
2022-12-15T14:16:16.655Z,97.58
2022-12-15T14:19:19.258Z,97.40
2022-12-15T14:22:28.241Z,97.30
2022-12-15T14:25:31.219Z,98.72
2022-12-15T14:28:39.778Z,97.59
2022-12-15T14:31:46.947Z,95.84
2022-12-15T14:34:51.069Z,95.72
2022-12-15T14:37:57.280Z,96.09
2022-12-15T14:41:03.446Z,97.28
2022-12-15T14:44:37.041Z,98.75
2022-12-15T14:47:40.520Z,97.52
2022-12-15T14:50:47.354Z,96.76
2022-12-15T14:57:20.186Z,100.00
2022-12-15T15:00:35.674Z,100.00
2022-12-15T15:03:40.888Z,100.00
2022-12-15T15:06:47.707Z,100.00
2022-12-15T15:09:53.168Z,100.00
2022-12-15T15:12:58.487Z,100.00
2022-12-15T15:16:06.297Z,100.00
2022-12-15T15:19:19.462Z,100.00
2022-12-15T15:22:40.915Z,100.00
2022-12-15T15:25:56.584Z,100.00
2022-12-15T15:28:59.013Z,100.00
2022-12-15T15:32:16.866Z,100.00
2022-12-15T15:35:20.041Z,100.00
2022-12-15T15:38:28.874Z,100.00
2022-12-15T15:41:33.001Z,100.00
2022-12-15T15:44:35.874Z,100.00
2022-12-15T15:47:38.009Z,100.00
2022-12-15T15:50:40.740Z,100.00
2022-12-15T15:53:43.077Z,100.00
2022-12-15T15:56:45.629Z,100.00
2022-12-15T15:59:47.807Z,100.00
2022-12-15T16:02:51.162Z,100.00
2022-12-15T16:05:53.785Z,100.00
2022-12-15T16:08:58.309Z,100.00
2022-12-15T16:12:00.809Z,100.00
2022-12-15T16:15:06.127Z,100.00
2022-12-15T16:18:08.812Z,100.00
2022-12-15T16:21:16.697Z,100.00
2022-12-15T16:24:19.506Z,100.00
2022-12-15T16:27:22.311Z,100.00
2022-12-15T16:30:26.557Z,100.00
2022-12-15T16:33:28.877Z,100.00
2022-12-15T16:36:32.565Z,100.00
2022-12-15T16:39:35.456Z,100.00
2022-12-15T16:42:38.132Z,100.00
2022-12-15T16:45:44.685Z,100.00
2022-12-15T16:48:47.339Z,100.00
2022-12-15T16:51:52.424Z,100.00
2022-12-15T16:54:54.955Z,100.00
2022-12-15T16:58:05.433Z,100.00
2022-12-15T17:01:10.364Z,100.00
2022-12-15T17:04:14.164Z,100.00
2022-12-15T17:07:20.445Z,100.00
2022-12-15T17:10:26.385Z,100.00
2022-12-15T17:13:39.056Z,100.00
2022-12-15T17:16:44.146Z,100.00
2022-12-15T17:23:16.011Z,100.00
2022-12-15T17:26:29.052Z,100.00
2022-12-15T17:29:33.184Z,100.00
2022-12-15T17:32:35.636Z,100.00
2022-12-15T17:35:37.750Z,100.00
2022-12-15T17:38:40.429Z,100.00
2022-12-15T17:41:59.262Z,100.00
2022-12-15T17:45:06.551Z,100.00
2022-12-15T17:48:09.018Z,100.00
2022-12-15T17:51:16.575Z,100.00
2022-12-15T17:54:19.675Z,100.00
2022-12-15T17:57:22.089Z,100.00
2022-12-15T18:00:27.630Z,100.00
2022-12-15T18:03:31.231Z,100.00
2022-12-15T18:06:33.708Z,100.00
2022-12-15T18:09:36.122Z,100.00
2022-12-15T18:12:38.482Z,100.00
2022-12-15T18:15:41.028Z,100.00
2022-12-15T18:18:43.277Z,100.00
2022-12-15T18:21:45.841Z,100.00
2022-12-15T18:24:49.641Z,100.00
2022-12-15T18:27:53.869Z,100.00
2022-12-15T18:31:02.961Z,100.00
2022-12-15T18:34:12.625Z,100.00
2022-12-15T18:37:19.543Z,100.00
2022-12-15T18:40:27.122Z,100.00
2022-12-15T18:43:34.781Z,100.00
2022-12-15T18:46:37.510Z,100.00
2022-12-15T18:49:39.664Z,100.00
2022-12-15T18:52:42.555Z,100.00
2022-12-15T18:55:46.529Z,100.00
2022-12-15T18:58:48.943Z,100.00
2022-12-15T19:01:51.165Z,100.00
2022-12-15T19:04:53.716Z,100.00
2022-12-15T19:08:09.983Z,100.00
2022-12-15T19:11:18.348Z,100.00
2022-12-15T19:14:39.399Z,100.00
2022-12-15T19:18:00.539Z,100.00
2022-12-15T19:21:48.053Z,100.00
2022-12-15T19:24:56.114Z,100.00
2022-12-15T19:28:00.245Z,100.00
2022-12-15T19:31:02.941Z,100.00
2022-12-15T19:34:05.156Z,100.00
2022-12-15T19:37:15.917Z,100.00
2022-12-15T19:40:25.028Z,100.00
2022-12-15T19:43:27.661Z,100.00
2022-12-15T19:46:29.762Z,100.00
2022-12-15T19:49:32.258Z,100.00
2022-12-15T19:52:34.442Z,100.00
2022-12-15T19:55:36.965Z,100.00
2022-12-15T19:58:39.481Z,100.00
2022-12-15T20:01:42.113Z,100.00
2022-12-15T20:04:45.490Z,100.00
2022-12-15T20:07:49.063Z,100.00
2022-12-15T20:10:53.920Z,100.00
2022-12-15T20:13:56.889Z,100.00
2022-12-15T20:16:59.326Z,100.00
2022-12-15T20:20:01.636Z,100.00
2022-12-15T20:23:14.325Z,100.00
2022-12-15T20:26:17.262Z,100.00
2022-12-15T20:29:25.990Z,100.00
2022-12-15T20:32:28.146Z,100.00
2022-12-15T20:35:33.213Z,100.00
2022-12-15T20:38:36.061Z,100.00
2022-12-15T20:41:38.727Z,100.00
2022-12-15T20:44:41.280Z,100.00
2022-12-15T20:47:46.283Z,100.00
2022-12-15T20:50:49.342Z,100.00
2022-12-15T20:53:53.569Z,100.00
2022-12-15T20:56:57.878Z,100.00
2022-12-15T21:00:00.323Z,100.00
2022-12-15T21:03:02.916Z,100.00
2022-12-15T21:06:07.650Z,100.00
2022-12-15T21:09:13.240Z,100.00
2022-12-15T21:12:18.478Z,100.00
2022-12-15T21:15:23.192Z,100.00
2022-12-15T21:19:17.997Z,100.00
2022-12-15T21:21:52.060Z,100.00
2022-12-15T21:24:57.445Z,100.00
2022-12-15T21:27:59.684Z,100.00
2022-12-15T21:31:02.234Z,100.00
2022-12-15T21:34:04.453Z,100.00
2022-12-15T21:37:22.617Z,100.00
2022-12-15T21:40:28.540Z,100.00
2022-12-15T21:43:33.556Z,100.00
2022-12-15T21:46:35.697Z,100.00
2022-12-15T21:49:38.169Z,100.00
2022-12-15T21:52:40.744Z,100.00
2022-12-15T21:55:46.235Z,100.00
2022-12-15T21:58:52.712Z,100.00
2022-12-15T22:02:00.277Z,100.00
2022-12-15T22:05:03.033Z,100.00
2022-12-15T22:08:17.386Z,100.00
2022-12-15T22:11:25.943Z,100.00
2022-12-15T22:14:32.048Z,100.00
2022-12-15T22:17:34.489Z,100.00
2022-12-15T22:20:37.598Z,100.00
2022-12-15T22:23:40.216Z,100.00
2022-12-15T22:26:43.053Z,100.00
2022-12-15T22:29:46.233Z,100.00
2022-12-15T22:32:48.933Z,100.00
2022-12-15T22:35:53.312Z,100.00
2022-12-15T22:38:57.069Z,100.00
2022-12-15T22:42:01.005Z,100.00
2022-12-15T22:45:04.645Z,100.00
2022-12-15T22:48:07.137Z,100.00
2022-12-15T22:51:12.994Z,100.00
2022-12-15T22:54:20.883Z,100.00
2022-12-15T22:57:26.293Z,100.00
2022-12-15T23:00:28.694Z,100.00
2022-12-15T23:03:31.289Z,100.00
2022-12-15T23:06:34.085Z,100.00
2022-12-15T23:09:36.331Z,100.00
2022-12-15T23:12:38.762Z,100.00
2022-12-15T23:15:59.670Z,100.00
2022-12-15T23:19:02.225Z,100.00
2022-12-15T23:22:04.291Z,100.00
2022-12-15T23:25:07.432Z,100.00
2022-12-15T23:28:10.333Z,100.00
2022-12-15T23:31:12.815Z,100.00
2022-12-15T23:34:15.331Z,100.00
2022-12-15T23:37:17.870Z,100.00
2022-12-15T23:40:21.995Z,100.00
2022-12-15T23:43:26.804Z,100.00
2022-12-15T23:46:29.123Z,100.00
2022-12-15T23:49:31.650Z,100.00
2022-12-15T23:52:33.807Z,100.00
2022-12-15T23:55:36.787Z,100.00
2022-12-15T23:58:40.883Z,100.00
